createdAt,value
2023-05-19T00:00:31.967Z,300.6923
2023-05-19T00:01:32.869Z,303.3077
2023-05-19T00:02:33.940Z,300.6154
2023-05-19T00:03:34.838Z,298.0769
2023-05-19T00:04:35.907Z,300.6154
2023-05-19T00:05:37.066Z,304.6154
2023-05-19T00:06:38.016Z,307.0000
2023-05-19T00:07:39.014Z,315.8462
2023-05-19T00:08:40.054Z,307.9231
2023-05-19T00:09:41.121Z,308.3077
2023-05-19T00:10:42.186Z,305.0000
2023-05-19T00:11:43.225Z,304.3077
2023-05-19T00:12:44.297Z,305.0000
2023-05-19T00:13:45.287Z,312.7692
2023-05-19T00:14:46.349Z,315.0769
2023-05-19T00:15:47.423Z,314.6154
2023-05-19T00:16:48.409Z,310.3077
2023-05-19T00:17:49.413Z,299.1538
2023-05-19T00:18:50.566Z,306.5385
2023-05-19T00:19:51.490Z,302.0769
2023-05-19T00:20:52.583Z,295.0000
2023-05-19T00:21:53.667Z,282.3846
2023-05-19T00:22:54.631Z,282.4615
2023-05-19T00:23:55.668Z,283.0000
2023-05-19T00:24:56.796Z,286.3077
2023-05-19T00:25:57.812Z,299.2308
2023-05-19T00:26:58.833Z,311.3846
2023-05-19T00:27:59.809Z,315.0000
2023-05-19T00:29:00.863Z,314.0000
2023-05-19T00:30:01.892Z,324.2308
2023-05-19T00:31:03.010Z,318.5385
2023-05-19T00:32:04.026Z,315.8462
2023-05-19T00:33:05.137Z,303.3077
2023-05-19T00:34:06.074Z,293.5385
2023-05-19T00:35:07.097Z,295.0000
2023-05-19T00:36:08.210Z,303.8462
2023-05-19T00:37:09.252Z,303.3077
2023-05-19T00:38:10.233Z,308.3077
2023-05-19T00:39:11.329Z,313.8462
2023-05-19T00:40:12.315Z,308.0769
2023-05-19T00:41:13.429Z,310.6154
2023-05-19T00:42:14.507Z,300.6923
2023-05-19T00:43:15.429Z,299.3077
2023-05-19T00:44:16.490Z,289.7692
2023-05-19T00:45:17.568Z,281.9231
2023-05-19T00:46:18.649Z,295.1538
2023-05-19T00:47:19.679Z,298.8462
2023-05-19T00:48:20.650Z,297.6923
2023-05-19T00:49:21.710Z,304.9231
2023-05-19T00:50:22.746Z,318.3077
2023-05-19T00:51:23.890Z,309.6923
2023-05-19T00:52:24.906Z,298.9231
2023-05-19T00:53:25.852Z,298.8462
2023-05-19T00:54:26.912Z,311.7692
2023-05-19T00:55:27.999Z,313.3077
2023-05-19T00:56:29.099Z,308.6154
2023-05-19T00:57:30.106Z,311.0769
2023-05-19T00:58:31.219Z,313.7692
2023-05-19T00:59:32.153Z,304.2308
2023-05-19T01:00:33.421Z,303.6923
2023-05-19T01:01:34.385Z,303.5385
2023-05-19T01:02:35.392Z,309.2308
2023-05-19T01:03:36.473Z,322.0769
2023-05-19T01:04:37.308Z,336.0000
2023-05-19T01:05:38.412Z,338.1538
2023-05-19T01:06:39.452Z,332.6923
2023-05-19T01:07:40.509Z,331.0769
2023-05-19T01:08:41.522Z,316.7692
2023-05-19T01:09:42.552Z,315.6923
2023-05-19T01:10:43.579Z,316.4615
2023-05-19T01:11:44.687Z,309.2308
2023-05-19T01:12:45.697Z,314.2308
2023-05-19T01:13:46.725Z,310.9231
2023-05-19T01:14:47.757Z,319.8462
2023-05-19T01:15:48.838Z,319.3846
2023-05-19T01:16:49.938Z,308.5385
2023-05-19T01:17:50.935Z,309.8462
2023-05-19T01:18:51.937Z,317.2308
2023-05-19T01:19:53.011Z,305.2308
2023-05-19T01:20:54.027Z,307.2308
2023-05-19T01:21:55.106Z,303.1538
2023-05-19T01:22:56.113Z,300.2308
2023-05-19T01:23:57.200Z,295.7692
2023-05-19T01:24:58.150Z,292.3077
2023-05-19T01:25:59.185Z,289.1538
2023-05-19T01:27:00.331Z,296.2308
2023-05-19T01:28:01.370Z,310.0000
2023-05-19T01:29:02.379Z,319.4615
2023-05-19T01:30:03.407Z,309.3846
2023-05-19T01:31:04.446Z,323.1538
2023-05-19T01:32:05.599Z,336.9231
2023-05-19T01:33:06.610Z,334.7692
2023-05-19T01:34:07.663Z,333.2308
2023-05-19T01:35:08.594Z,327.7692
2023-05-19T01:36:09.741Z,315.5385
2023-05-19T01:37:10.786Z,313.6923
2023-05-19T01:38:11.791Z,309.3846
2023-05-19T01:39:12.792Z,293.4615
2023-05-19T01:40:13.813Z,290.8462
2023-05-19T01:41:14.948Z,279.0000
2023-05-19T01:42:15.935Z,285.9231
2023-05-19T01:43:16.985Z,289.9231
2023-05-19T01:44:18.082Z,305.4615
2023-05-19T01:45:19.100Z,313.4615
2023-05-19T01:46:20.098Z,311.6154
2023-05-19T01:47:21.239Z,311.8462
2023-05-19T01:48:22.200Z,305.5385
2023-05-19T01:49:23.219Z,300.0769
2023-05-19T01:50:24.264Z,300.6923
2023-05-19T01:51:25.296Z,301.2308
2023-05-19T01:52:26.377Z,297.3846
2023-05-19T01:53:27.416Z,300.5385
2023-05-19T01:54:28.416Z,307.6154
2023-05-19T01:55:29.473Z,314.9231
2023-05-19T01:56:30.494Z,320.9231
2023-05-19T01:57:31.593Z,319.3846
2023-05-19T01:58:32.694Z,326.4615
2023-05-19T01:59:33.638Z,333.6154
2023-05-19T02:00:34.815Z,333.7692
2023-05-19T02:01:35.753Z,322.0000
2023-05-19T02:02:36.839Z,314.5385
2023-05-19T02:03:37.857Z,313.5385
2023-05-19T02:04:38.877Z,323.9231
2023-05-19T02:05:39.940Z,323.8462
2023-05-19T02:06:40.960Z,329.4615
2023-05-19T02:07:42.017Z,333.7692
2023-05-19T02:08:43.126Z,331.5385
2023-05-19T02:09:44.037Z,341.3846
2023-05-19T02:10:45.137Z,338.8462
2023-05-19T02:11:46.113Z,334.2308
2023-05-19T02:12:47.191Z,319.2308
2023-05-19T02:13:48.268Z,304.6923
2023-05-19T02:14:49.270Z,297.3077
2023-05-19T02:15:50.374Z,307.2308
2023-05-19T02:16:51.350Z,311.3077
2023-05-19T02:17:52.461Z,305.3846
2023-05-19T02:18:53.541Z,301.5385
2023-05-19T02:19:54.469Z,292.2308
2023-05-19T02:20:55.494Z,305.5385
2023-05-19T02:21:56.550Z,308.5385
2023-05-19T02:22:57.656Z,307.7692
2023-05-19T02:23:58.723Z,309.9231
2023-05-19T02:24:59.673Z,310.0769
2023-05-19T02:26:00.717Z,311.4615
2023-05-19T02:27:01.736Z,312.2308
2023-05-19T02:28:02.838Z,306.2308
2023-05-19T02:29:03.858Z,307.6923
2023-05-19T02:30:04.845Z,313.7692
2023-05-19T02:31:05.945Z,325.5385
2023-05-19T02:32:07.027Z,327.0000
2023-05-19T02:33:08.082Z,327.1538
2023-05-19T02:34:09.053Z,332.9231
2023-05-19T02:35:10.025Z,308.7692
2023-05-19T02:36:11.085Z,304.5385
2023-05-19T02:37:12.118Z,301.8462
2023-05-19T02:38:13.225Z,304.0000
2023-05-19T02:39:14.296Z,296.0000
2023-05-19T02:40:15.338Z,286.9231
2023-05-19T02:41:16.311Z,291.6923
2023-05-19T02:42:17.334Z,296.1538
2023-05-19T02:43:18.426Z,288.3077
2023-05-19T02:44:19.446Z,289.9231
2023-05-19T02:45:20.470Z,281.3077
2023-05-19T02:46:21.559Z,297.2308
2023-05-19T02:47:22.605Z,303.3846
2023-05-19T02:48:23.605Z,301.7692
2023-05-19T02:49:24.656Z,301.1538
2023-05-19T02:50:25.652Z,303.6154
2023-05-19T02:51:26.709Z,296.7692
2023-05-19T02:52:27.727Z,305.5385
2023-05-19T02:53:28.806Z,305.1538
2023-05-19T02:54:29.855Z,304.2308
2023-05-19T02:55:30.865Z,295.2308
2023-05-19T02:56:31.907Z,286.6154
2023-05-19T02:57:32.964Z,292.6154
2023-05-19T02:58:34.040Z,293.6923
2023-05-19T02:59:35.115Z,305.2308
2023-05-19T03:00:36.060Z,297.4615
2023-05-19T03:01:37.185Z,294.0000
2023-05-19T03:02:38.313Z,298.0769
2023-05-19T03:03:39.329Z,287.4615
2023-05-19T03:04:40.253Z,289.0000
2023-05-19T03:05:41.327Z,277.3077
2023-05-19T03:06:42.307Z,293.0769
2023-05-19T03:07:43.425Z,286.7692
2023-05-19T03:08:44.429Z,285.8462
2023-05-19T03:09:45.522Z,289.7692
2023-05-19T03:10:46.465Z,275.2308
2023-05-19T03:11:47.489Z,286.1538
2023-05-19T03:12:48.610Z,278.2308
2023-05-19T03:13:49.617Z,262.9231
2023-05-19T03:14:50.665Z,291.4615
2023-05-19T03:15:51.698Z,299.7692
2023-05-19T03:16:52.918Z,295.5385
2023-05-19T03:17:53.784Z,288.0769
2023-05-19T03:18:54.903Z,293.4615
2023-05-19T03:19:55.899Z,292.1538
2023-05-19T03:20:56.922Z,289.4615
2023-05-19T03:21:57.893Z,284.2308
2023-05-19T03:22:59.018Z,296.4615
2023-05-19T03:24:00.100Z,315.0000
2023-05-19T03:25:01.087Z,306.0769
2023-05-19T03:26:02.054Z,295.1538
2023-05-19T03:27:03.194Z,297.8462
2023-05-19T03:28:04.152Z,301.7692
2023-05-19T03:29:05.240Z,310.7692
2023-05-19T03:30:06.726Z,308.6154
2023-05-19T03:31:07.337Z,297.8462
2023-05-19T03:32:08.296Z,298.9231
2023-05-19T03:33:09.522Z,303.0000
2023-05-19T03:34:10.395Z,325.0000
2023-05-19T03:35:11.512Z,319.6923
2023-05-19T03:36:12.496Z,316.6154
2023-05-19T03:37:13.519Z,322.5385
2023-05-19T03:38:14.536Z,321.3846
2023-05-19T03:39:15.692Z,317.8462
2023-05-19T03:40:16.691Z,304.9231
2023-05-19T03:41:17.733Z,318.7692
2023-05-19T03:42:18.697Z,331.6154
2023-05-19T03:43:19.755Z,320.5385
2023-05-19T03:44:20.869Z,313.0769
2023-05-19T03:45:21.923Z,310.1538
2023-05-19T03:46:22.983Z,296.5385
2023-05-19T03:47:23.959Z,290.6154
2023-05-19T03:48:24.959Z,300.5385
2023-05-19T03:49:26.026Z,304.0769
2023-05-19T03:50:27.157Z,300.0769
2023-05-19T03:51:28.069Z,310.9231
2023-05-19T03:52:29.137Z,317.0769
2023-05-19T03:53:30.148Z,318.0000
2023-05-19T03:54:31.274Z,321.4615
2023-05-19T03:55:32.257Z,317.6923
2023-05-19T03:56:33.311Z,319.5385
2023-05-19T03:57:34.309Z,310.6154
2023-05-19T03:58:35.392Z,322.9231
2023-05-19T03:59:36.421Z,335.3846
2023-05-19T04:00:37.558Z,340.0769
2023-05-19T04:01:38.500Z,325.0000
2023-05-19T04:02:39.654Z,328.0769
2023-05-19T04:03:40.618Z,337.7692
2023-05-19T04:04:41.682Z,327.0769
2023-05-19T04:05:42.709Z,324.2308
2023-05-19T04:06:43.695Z,321.9231
2023-05-19T04:07:44.715Z,307.2308
2023-05-19T04:08:45.800Z,297.9231
2023-05-19T04:09:46.860Z,291.0769
2023-05-19T04:10:47.907Z,297.4615
2023-05-19T04:11:48.931Z,309.9231
2023-05-19T04:12:49.954Z,313.3077
2023-05-19T04:13:51.030Z,304.4615
2023-05-19T04:14:52.095Z,296.5385
2023-05-19T04:15:53.230Z,291.1538
2023-05-19T04:16:54.151Z,289.3846
2023-05-19T04:17:55.225Z,309.1538
2023-05-19T04:18:56.304Z,302.0000
2023-05-19T04:19:57.324Z,290.5385
2023-05-19T04:20:58.334Z,293.1538
2023-05-19T04:21:59.349Z,297.5385
2023-05-19T04:23:00.403Z,303.2308
2023-05-19T04:24:01.455Z,296.3077
2023-05-19T04:25:02.569Z,302.6154
2023-05-19T04:26:03.596Z,299.9231
2023-05-19T04:27:04.657Z,302.3077
2023-05-19T04:28:05.618Z,313.8462
2023-05-19T04:29:06.735Z,316.5385
2023-05-19T04:30:07.818Z,299.1538
2023-05-19T04:31:08.860Z,293.3077
2023-05-19T04:32:09.871Z,305.5385
2023-05-19T04:33:10.870Z,312.3077
2023-05-19T04:34:11.928Z,300.1538
2023-05-19T04:35:13.086Z,291.6923
2023-05-19T04:36:14.058Z,298.0769
2023-05-19T04:37:15.076Z,303.6923
2023-05-19T04:38:16.054Z,296.6923
2023-05-19T04:39:17.126Z,280.9231
2023-05-19T04:40:18.233Z,291.0000
2023-05-19T04:41:19.283Z,301.6154
2023-05-19T04:42:20.295Z,319.2308
2023-05-19T04:43:21.297Z,308.4615
2023-05-19T04:44:22.336Z,304.9231
2023-05-19T04:45:23.421Z,304.2308
2023-05-19T04:46:24.585Z,308.6923
2023-05-19T04:47:25.516Z,294.9231
2023-05-19T04:48:26.591Z,306.3846
2023-05-19T04:49:27.594Z,303.9231
2023-05-19T04:50:28.700Z,301.9231
2023-05-19T04:51:30.665Z,317.3077
2023-05-19T04:52:30.676Z,309.2308
2023-05-19T04:53:31.737Z,291.8462
2023-05-19T04:54:32.871Z,291.2308
2023-05-19T04:55:33.879Z,291.5385
2023-05-19T04:56:34.984Z,293.7692
2023-05-19T04:57:35.913Z,293.3077
2023-05-19T04:58:36.954Z,284.2308
2023-05-19T04:59:37.985Z,286.2308
2023-05-19T05:00:39.090Z,272.4615
2023-05-19T05:01:40.207Z,280.3077
2023-05-19T05:02:41.186Z,289.3846
2023-05-19T05:03:42.245Z,298.3077
2023-05-19T05:04:43.230Z,304.3846
2023-05-19T05:05:44.323Z,296.9231
2023-05-19T05:06:45.352Z,291.1538
2023-05-19T05:07:46.327Z,267.3846
2023-05-19T05:08:47.403Z,266.5385
2023-05-19T05:09:48.476Z,261.7692
2023-05-19T05:10:49.547Z,282.3846
2023-05-19T05:11:50.572Z,291.7692
2023-05-19T05:12:51.676Z,286.1538
2023-05-19T05:13:52.632Z,295.6154
2023-05-19T05:14:53.728Z,302.0769
2023-05-19T05:15:54.783Z,294.3077
2023-05-19T05:16:55.811Z,281.7692
2023-05-19T05:17:56.939Z,279.8462
2023-05-19T05:18:57.904Z,301.3846
2023-05-19T05:19:58.906Z,315.5385
2023-05-19T05:20:59.947Z,325.4615
2023-05-19T05:22:01.052Z,316.3846
2023-05-19T05:23:01.990Z,313.6154
2023-05-19T05:24:03.006Z,324.6154
2023-05-19T05:25:04.109Z,322.6923
2023-05-19T05:26:05.157Z,314.1538
2023-05-19T05:27:06.270Z,302.6923
2023-05-19T05:28:07.330Z,287.0000
2023-05-19T05:29:08.333Z,307.8462
2023-05-19T05:30:09.329Z,312.3077
2023-05-19T05:31:10.461Z,310.5385
2023-05-19T05:32:11.493Z,302.4615
2023-05-19T05:33:12.748Z,292.7692
2023-05-19T05:34:13.530Z,274.2308
2023-05-19T05:35:14.563Z,277.6154
2023-05-19T05:36:15.665Z,274.2308
2023-05-19T05:37:16.697Z,257.6154
2023-05-19T05:38:17.736Z,257.3846
2023-05-19T05:39:18.750Z,271.9231
2023-05-19T05:40:19.774Z,262.6923
2023-05-19T05:41:20.823Z,264.6154
2023-05-19T05:42:21.950Z,267.5385
2023-05-19T05:43:22.910Z,258.1538
2023-05-19T05:44:23.939Z,258.5385
2023-05-19T05:45:24.997Z,260.8462
2023-05-19T05:46:26.195Z,260.3077
2023-05-19T05:47:27.153Z,259.5385
2023-05-19T05:48:28.108Z,271.6154
2023-05-19T05:49:29.145Z,279.4615
2023-05-19T05:50:30.187Z,279.3077
2023-05-19T05:51:31.249Z,285.0000
2023-05-19T05:52:32.294Z,270.4615
2023-05-19T05:53:33.295Z,262.5385
2023-05-19T05:54:34.337Z,263.7692
2023-05-19T05:55:35.546Z,260.4615
2023-05-19T05:56:36.513Z,283.9231
2023-05-19T05:57:37.565Z,273.6923
2023-05-19T05:58:38.517Z,279.9231
2023-05-19T05:59:39.554Z,297.9231
2023-05-19T06:00:40.593Z,294.6923
2023-05-19T06:01:41.721Z,295.5385
2023-05-19T06:02:42.820Z,293.3077
2023-05-19T06:03:43.835Z,299.2308
2023-05-19T06:04:44.751Z,307.3846
2023-05-19T06:05:45.829Z,315.3846
2023-05-19T06:06:46.862Z,305.0000
2023-05-19T06:07:47.940Z,300.6154
2023-05-19T06:08:48.906Z,299.9231
2023-05-19T06:09:49.953Z,303.0000
2023-05-19T06:10:51.018Z,299.4615
2023-05-19T06:11:52.075Z,290.3077
2023-05-19T06:12:53.130Z,283.4615
2023-05-19T06:13:54.113Z,297.7692
2023-05-19T06:14:55.138Z,295.6923
2023-05-19T06:15:56.208Z,291.1538
2023-05-19T06:16:57.389Z,282.0769
2023-05-19T06:17:58.367Z,275.3077
2023-05-19T06:18:59.452Z,276.3846
2023-05-19T06:20:00.340Z,279.5385
2023-05-19T06:21:01.503Z,283.0000
2023-05-19T06:22:02.524Z,298.6154
2023-05-19T06:23:03.544Z,298.8462
2023-05-19T06:24:04.538Z,295.5385
2023-05-19T06:25:05.632Z,306.0769
2023-05-19T06:26:06.611Z,318.5385
2023-05-19T06:27:07.825Z,331.9231
2023-05-19T06:28:08.796Z,327.6154
2023-05-19T06:29:09.730Z,308.2308
2023-05-19T06:30:10.788Z,314.4615
2023-05-19T06:31:11.841Z,316.4615
2023-05-19T06:32:12.880Z,307.5385
2023-05-19T06:33:14.002Z,289.3846
2023-05-19T06:34:14.943Z,296.6923
2023-05-19T06:35:16.065Z,283.7692
2023-05-19T06:36:17.119Z,294.5385
2023-05-19T06:37:18.216Z,314.0000
2023-05-19T06:38:19.162Z,319.2308
2023-05-19T06:39:20.192Z,314.3846
2023-05-19T06:40:21.200Z,304.0769
2023-05-19T06:41:22.391Z,309.9231
2023-05-19T06:42:23.327Z,315.6154
2023-05-19T06:43:24.396Z,323.6923
2023-05-19T06:44:25.356Z,321.6923
2023-05-19T06:45:26.439Z,306.3846
2023-05-19T06:46:27.460Z,319.0769
2023-05-19T06:47:28.566Z,311.7692
2023-05-19T06:48:29.631Z,302.3846
2023-05-19T06:49:30.612Z,308.8462
2023-05-19T06:50:31.843Z,310.2308
2023-05-19T06:51:32.670Z,320.3846
2023-05-19T06:52:33.860Z,311.0000
2023-05-19T06:53:34.816Z,300.6923
2023-05-19T06:54:35.775Z,289.4615
2023-05-19T06:55:41.400Z,291.2308
2023-05-19T06:56:37.908Z,298.3846
2023-05-19T06:57:38.946Z,299.2308
2023-05-19T06:58:39.921Z,302.6154
2023-05-19T06:59:40.901Z,318.8462
2023-05-19T07:00:41.965Z,320.1538
2023-05-19T07:01:43.077Z,321.3846
2023-05-19T07:02:44.152Z,322.0000
2023-05-19T07:03:45.156Z,326.1538
2023-05-19T07:04:46.105Z,332.4615
2023-05-19T07:05:47.133Z,344.2308
2023-05-19T07:06:48.185Z,345.0769
2023-05-19T07:07:49.253Z,320.6154
2023-05-19T07:08:51.816Z,306.5385
2023-05-19T07:09:51.312Z,280.2308
2023-05-19T07:10:52.380Z,268.0000
2023-05-19T07:11:53.373Z,274.3846
2023-05-19T07:12:54.492Z,287.5385
2023-05-19T07:13:55.616Z,288.6154
2023-05-19T07:14:56.590Z,272.2308
2023-05-19T07:15:57.601Z,270.5385
2023-05-19T07:16:58.607Z,289.9231
2023-05-19T07:17:59.724Z,308.5385
2023-05-19T07:19:00.800Z,303.6154
2023-05-19T07:20:01.731Z,313.0000
2023-05-19T07:21:02.788Z,311.6154
2023-05-19T07:22:03.822Z,312.3077
2023-05-19T07:23:04.901Z,301.9231
2023-05-19T07:24:05.932Z,292.0769
2023-05-19T07:25:06.993Z,286.3077
2023-05-19T07:26:07.965Z,268.9231
2023-05-19T07:27:09.071Z,267.8462
2023-05-19T07:28:10.135Z,271.0000
2023-05-19T07:29:11.204Z,260.8462
2023-05-19T07:30:12.223Z,264.0769
2023-05-19T07:31:13.208Z,271.1538
2023-05-19T07:32:14.344Z,278.2308
2023-05-19T07:33:15.395Z,275.1538
2023-05-19T07:34:16.349Z,276.5385
2023-05-19T07:35:17.415Z,272.6154
2023-05-19T07:36:18.405Z,285.6923
2023-05-19T07:37:19.499Z,283.0769
2023-05-19T07:38:20.505Z,295.1538
2023-05-19T07:39:21.609Z,305.9231
2023-05-19T07:40:22.594Z,298.6923
2023-05-19T07:41:23.640Z,304.0769
2023-05-19T07:42:24.699Z,300.3846
2023-05-19T07:43:25.696Z,299.2308
2023-05-19T07:44:26.750Z,293.3077
2023-05-19T07:45:27.848Z,292.1538
2023-05-19T07:46:28.993Z,282.7692
2023-05-19T07:47:30.023Z,288.3846
2023-05-19T07:48:30.890Z,296.0000
2023-05-19T07:49:32.011Z,299.3846
2023-05-19T07:50:33.140Z,304.9231
2023-05-19T07:51:34.019Z,304.3846
2023-05-19T07:52:35.083Z,293.8462
2023-05-19T07:53:36.135Z,307.0000
2023-05-19T07:54:37.164Z,318.3846
2023-05-19T07:55:38.208Z,333.3846
2023-05-19T07:56:39.214Z,339.8462
2023-05-19T07:57:40.540Z,335.8462
2023-05-19T07:58:41.332Z,325.1538
2023-05-19T07:59:42.386Z,329.9231
2023-05-19T08:00:43.435Z,318.0000
2023-05-19T08:01:44.418Z,323.9231
2023-05-19T08:02:45.493Z,322.5385
2023-05-19T08:03:46.545Z,318.5385
2023-05-19T08:04:47.680Z,321.3077
2023-05-19T08:05:48.657Z,325.3077
2023-05-19T08:06:49.591Z,303.7692
2023-05-19T08:07:50.691Z,291.3846
2023-05-19T08:08:51.747Z,289.2308
2023-05-19T08:09:52.817Z,291.7692
2023-05-19T08:10:53.847Z,285.0769
2023-05-19T08:11:54.873Z,303.9231
2023-05-19T08:12:56.138Z,318.2308
2023-05-19T08:13:56.926Z,308.7692
2023-05-19T08:14:59.734Z,309.1538
2023-05-19T08:15:59.090Z,307.2308
2023-05-19T08:17:00.039Z,295.3077
2023-05-19T08:18:01.151Z,296.0000
2023-05-19T08:19:02.173Z,300.1538
2023-05-19T08:20:03.219Z,318.1538
2023-05-19T08:21:04.247Z,310.3077
2023-05-19T08:22:05.253Z,292.0769
2023-05-19T08:23:06.271Z,285.0769
2023-05-19T08:24:07.352Z,286.0000
2023-05-19T08:25:08.438Z,271.9231
2023-05-19T08:26:09.505Z,258.6154
2023-05-19T08:27:10.482Z,265.6923
2023-05-19T08:28:11.620Z,279.5385
2023-05-19T08:29:12.522Z,286.2308
2023-05-19T08:30:13.645Z,275.6923
2023-05-19T08:31:14.704Z,281.8462
2023-05-19T08:32:15.698Z,302.1538
2023-05-19T08:33:16.701Z,313.1538
2023-05-19T08:34:17.746Z,308.7692
2023-05-19T08:35:18.865Z,312.6923
2023-05-19T08:36:20.055Z,313.0000
2023-05-19T08:37:20.907Z,313.3846
2023-05-19T08:38:21.954Z,318.4615
2023-05-19T08:39:22.945Z,309.8462
2023-05-19T08:40:24.067Z,307.9231
2023-05-19T08:41:25.128Z,323.8462
2023-05-19T08:42:26.152Z,340.3846
2023-05-19T08:43:27.148Z,346.8462
2023-05-19T08:44:28.161Z,334.2308
2023-05-19T08:45:29.465Z,329.6154
2023-05-19T08:46:30.309Z,316.6923
2023-05-19T08:47:31.337Z,311.4615
2023-05-19T08:48:32.323Z,299.8462
2023-05-19T08:49:33.346Z,310.0000
2023-05-19T08:50:34.741Z,311.2308
2023-05-19T08:51:35.497Z,305.8462
2023-05-19T08:52:36.557Z,293.8462
2023-05-19T08:53:37.519Z,295.5385
2023-05-19T08:54:38.540Z,285.6154
2023-05-19T08:55:39.625Z,289.7692
2023-05-19T08:56:40.660Z,303.3846
2023-05-19T08:57:41.699Z,306.9231
2023-05-19T08:58:42.786Z,306.2308
2023-05-19T08:59:43.781Z,302.6154
2023-05-19T09:00:44.848Z,292.7692
2023-05-19T09:01:46.027Z,285.7692
2023-05-19T09:02:55.467Z,297.9231
2023-05-19T09:03:47.974Z,323.4615
2023-05-19T09:04:49.015Z,334.7692
2023-05-19T09:05:50.073Z,351.7692
2023-05-19T09:06:51.054Z,335.0000
2023-05-19T09:07:52.165Z,324.7692
2023-05-19T09:08:53.381Z,340.4615
2023-05-19T09:09:54.137Z,338.9231
2023-05-19T09:10:55.264Z,352.2308
2023-05-19T09:11:56.306Z,357.2308
2023-05-19T09:12:57.302Z,357.3846
2023-05-19T09:13:58.316Z,349.2308
2023-05-19T09:14:59.374Z,346.2308
2023-05-19T09:16:00.390Z,348.6923
2023-05-19T09:17:01.575Z,338.4615
2023-05-19T09:18:02.558Z,341.7692
2023-05-19T09:19:03.620Z,349.9231
2023-05-19T09:20:04.574Z,354.0769
2023-05-19T09:21:05.603Z,358.4615
2023-05-19T09:22:06.718Z,338.6923
2023-05-19T09:23:07.703Z,327.7692
2023-05-19T09:24:08.726Z,325.4615
2023-05-19T09:25:09.740Z,334.6923
2023-05-19T09:26:10.752Z,328.4615
2023-05-19T09:27:11.859Z,330.3077
2023-05-19T09:28:12.943Z,341.8462
2023-05-19T09:29:13.992Z,337.1538
2023-05-19T09:30:15.007Z,321.0769
2023-05-19T09:31:16.042Z,332.7692
2023-05-19T09:32:17.096Z,333.4615
2023-05-19T09:33:18.172Z,341.7692
2023-05-19T09:34:19.298Z,344.0769
2023-05-19T09:35:20.229Z,344.5385
2023-05-19T09:36:21.182Z,348.8462
2023-05-19T09:37:22.323Z,349.3077
2023-05-19T09:38:23.300Z,358.2308
2023-05-19T09:39:24.401Z,352.0000
2023-05-19T09:40:25.479Z,354.6923
2023-05-19T09:41:26.422Z,356.6923
2023-05-19T09:42:27.458Z,340.9231
2023-05-19T09:43:28.639Z,346.0769
2023-05-19T09:44:29.718Z,355.6923
2023-05-19T09:45:30.665Z,370.0000
2023-05-19T09:46:31.656Z,376.7692
2023-05-19T09:47:32.666Z,381.0000
2023-05-19T09:48:33.706Z,374.2308
2023-05-19T09:49:34.749Z,374.0769
2023-05-19T09:50:35.836Z,374.5385
2023-05-19T09:51:36.795Z,359.2308
2023-05-19T09:52:37.833Z,352.5385
2023-05-19T09:53:38.978Z,355.3077
2023-05-19T09:54:39.939Z,357.5385
2023-05-19T09:55:40.944Z,352.9231
2023-05-19T09:56:42.012Z,355.9231
2023-05-19T09:57:43.022Z,366.8462
2023-05-19T09:58:44.088Z,379.1538
2023-05-19T09:59:45.160Z,379.2308
2023-05-19T10:00:46.193Z,375.0000
2023-05-19T10:01:47.221Z,356.4615
2023-05-19T10:02:48.287Z,348.9231
2023-05-19T10:03:49.263Z,341.6154
2023-05-19T10:04:50.365Z,339.2308
2023-05-19T10:05:51.397Z,327.3846
2023-05-19T10:06:52.420Z,334.0769
2023-05-19T10:07:53.418Z,355.0769
2023-05-19T10:08:54.462Z,350.6154
2023-05-19T10:09:56.670Z,350.0000
2023-05-19T10:10:56.665Z,343.9231
2023-05-19T10:11:57.614Z,355.5385
2023-05-19T10:12:58.647Z,356.6923
2023-05-19T10:13:59.701Z,368.2308
2023-05-19T10:15:00.734Z,372.8462
2023-05-19T10:16:02.139Z,360.3077
2023-05-19T10:17:03.021Z,359.6923
2023-05-19T10:18:03.876Z,354.4615
2023-05-19T10:19:04.966Z,355.3077
2023-05-19T10:20:05.931Z,367.4615
2023-05-19T10:21:07.012Z,368.0000
2023-05-19T10:22:08.032Z,358.1538
2023-05-19T10:23:09.195Z,361.9231
2023-05-19T10:24:11.472Z,360.4615
2023-05-19T10:25:11.152Z,340.6154
2023-05-19T10:26:12.207Z,351.6923
2023-05-19T10:27:13.272Z,364.6923
2023-05-19T10:28:14.256Z,369.5385
2023-05-19T10:29:15.301Z,353.9231
2023-05-19T10:30:16.735Z,344.0000
2023-05-19T10:31:17.418Z,352.0769
2023-05-19T10:32:18.494Z,352.3846
2023-05-19T10:33:19.584Z,371.3846
2023-05-19T10:34:20.496Z,372.7692
2023-05-19T10:35:21.572Z,387.3846
2023-05-19T10:36:22.615Z,377.8462
2023-05-19T10:37:23.659Z,378.3077
2023-05-19T10:38:24.666Z,393.0000
2023-05-19T10:39:25.741Z,388.2308
2023-05-19T10:40:26.783Z,365.5385
2023-05-19T10:41:27.830Z,348.7692
2023-05-19T10:42:28.880Z,323.6154
2023-05-19T10:43:29.875Z,324.8462
2023-05-19T10:44:30.944Z,317.3077
2023-05-19T10:45:32.189Z,324.3846
2023-05-19T10:46:33.062Z,330.9231
2023-05-19T10:47:34.135Z,335.6923
2023-05-19T10:48:35.167Z,343.0769
2023-05-19T10:49:36.113Z,349.2308
2023-05-19T10:50:37.190Z,350.8462
2023-05-19T10:51:38.248Z,341.5385
2023-05-19T10:52:39.295Z,337.8462
2023-05-19T10:53:40.351Z,342.6154
2023-05-19T10:54:41.372Z,336.0000
2023-05-19T10:55:42.380Z,345.2308
2023-05-19T10:56:43.431Z,366.1538
2023-05-19T10:57:44.463Z,370.6923
2023-05-19T10:58:45.570Z,352.4615
2023-05-19T10:59:46.545Z,341.6154
2023-05-19T11:00:47.608Z,348.4615
2023-05-19T11:01:48.633Z,349.0000
2023-05-19T11:02:49.848Z,345.6923
2023-05-19T11:03:50.839Z,350.6154
2023-05-19T11:04:52.149Z,357.2308
2023-05-19T11:05:52.799Z,360.8462
2023-05-19T11:06:53.910Z,365.6923
2023-05-19T11:07:54.903Z,365.5385
2023-05-19T11:08:55.988Z,359.0000
2023-05-19T11:09:56.984Z,356.9231
2023-05-19T11:10:58.029Z,369.3077
2023-05-19T11:11:59.042Z,373.8462
2023-05-19T11:13:00.104Z,382.8462
2023-05-19T11:14:01.206Z,378.3846
2023-05-19T11:15:02.204Z,359.5385
2023-05-19T11:16:03.193Z,362.1538
2023-05-19T11:17:04.323Z,372.4615
2023-05-19T11:18:05.383Z,380.3077
2023-05-19T11:19:06.418Z,398.1538
2023-05-19T11:20:07.428Z,409.1538
2023-05-19T11:21:08.484Z,401.6154
2023-05-19T11:22:09.479Z,368.0769
2023-05-19T11:23:10.684Z,336.0769
2023-05-19T11:24:11.559Z,320.7692
2023-05-19T11:25:12.622Z,349.3077
2023-05-19T11:26:13.633Z,363.0000
2023-05-19T11:27:14.673Z,356.4615
2023-05-19T11:28:15.697Z,346.0000
2023-05-19T11:29:16.793Z,354.7692
2023-05-19T11:30:17.814Z,341.9231
2023-05-19T11:31:18.850Z,338.6923
2023-05-19T11:32:19.932Z,340.5385
2023-05-19T11:33:21.022Z,355.6923
2023-05-19T11:34:21.993Z,368.3077
2023-05-19T11:35:23.074Z,378.0769
2023-05-19T11:36:24.030Z,388.9231
2023-05-19T11:37:25.101Z,372.3077
2023-05-19T11:38:26.112Z,363.1538
2023-05-19T11:39:27.209Z,357.3077
2023-05-19T11:40:28.252Z,363.6923
2023-05-19T11:41:29.330Z,365.0000
2023-05-19T11:42:30.303Z,356.7692
2023-05-19T11:43:31.355Z,362.8462
2023-05-19T11:44:32.401Z,371.3077
2023-05-19T11:45:33.594Z,385.0000
2023-05-19T11:46:34.571Z,404.3077
2023-05-19T11:47:46.490Z,417.3077
2023-05-19T11:48:36.550Z,411.2308
2023-05-19T11:49:37.581Z,392.4615
2023-05-19T11:50:38.692Z,381.1538
2023-05-19T11:51:39.682Z,382.6154
2023-05-19T11:52:40.704Z,399.6154
2023-05-19T11:53:41.732Z,405.3846
2023-05-19T11:54:42.773Z,410.8462
2023-05-19T11:55:44.090Z,416.3077
2023-05-19T11:56:44.903Z,434.6923